createdAt,value
2018-06-18T00:02:28.591Z,19.90
2018-06-18T00:04:57.749Z,20.00
2018-06-18T00:07:26.932Z,19.90
2018-06-18T00:09:56.093Z,20.00
2018-06-18T00:12:25.310Z,20.00
2018-06-18T00:14:54.474Z,20.30
2018-06-18T00:17:23.643Z,20.60
2018-06-18T00:19:52.779Z,20.70
2018-06-18T00:22:21.880Z,21.10
2018-06-18T00:24:51.114Z,21.00
2018-06-18T00:27:20.331Z,21.10
2018-06-18T00:29:49.434Z,21.30
2018-06-18T00:32:18.587Z,21.80
2018-06-18T00:34:47.721Z,21.80
2018-06-18T00:37:16.918Z,21.80
2018-06-18T00:39:46.030Z,21.70
2018-06-18T00:42:15.162Z,21.70
2018-06-18T00:44:44.306Z,21.80
2018-06-18T00:47:13.452Z,22.30
2018-06-18T00:49:42.641Z,22.80
2018-06-18T00:52:11.833Z,23.10
2018-06-18T00:54:41.007Z,23.60
2018-06-18T00:57:10.129Z,23.80
2018-06-18T00:59:39.348Z,24.00
2018-06-18T01:02:08.469Z,24.30
2018-06-18T01:04:37.654Z,24.60
2018-06-18T01:07:06.836Z,24.60
2018-06-18T01:09:35.990Z,24.60
2018-06-18T01:12:05.146Z,24.60
2018-06-18T01:14:34.297Z,24.80
2018-06-18T01:17:03.389Z,25.00
2018-06-18T01:19:32.554Z,25.40
2018-06-18T01:22:01.717Z,25.30
2018-06-18T01:24:58.033Z,25.10
2018-06-18T01:27:27.287Z,25.40
2018-06-18T01:29:56.869Z,25.50
2018-06-18T01:32:26.468Z,25.20
2018-06-18T01:34:55.797Z,25.30
2018-06-18T01:37:24.936Z,25.40
2018-06-18T01:39:54.125Z,26.30
2018-06-18T01:42:23.251Z,25.60
2018-06-18T01:44:52.452Z,25.70
2018-06-18T01:47:21.658Z,25.80
2018-06-18T01:49:50.877Z,26.20
2018-06-18T01:52:19.976Z,26.40
2018-06-18T01:54:49.202Z,26.80
2018-06-18T01:57:18.301Z,26.70
2018-06-18T01:59:47.494Z,26.50
2018-06-18T02:02:16.645Z,26.70
2018-06-18T02:04:45.833Z,26.50
2018-06-18T02:07:15.020Z,26.60
2018-06-18T02:09:44.169Z,26.70
2018-06-18T02:12:13.263Z,26.50
2018-06-18T02:14:42.394Z,26.60
2018-06-18T02:17:11.553Z,27.00
2018-06-18T02:19:40.730Z,27.20
2018-06-18T02:22:09.992Z,27.40
2018-06-18T02:24:39.141Z,27.20
2018-06-18T02:27:13.658Z,27.00
2018-06-18T02:29:48.210Z,27.20
2018-06-18T02:32:22.645Z,27.40
2018-06-18T02:34:57.210Z,27.60
2018-06-18T02:37:31.601Z,27.80
2018-06-18T02:40:06.044Z,27.90
2018-06-18T02:42:35.169Z,28.00
2018-06-18T02:45:04.391Z,28.40
2018-06-18T02:47:33.561Z,28.20
2018-06-18T02:50:02.765Z,28.40
2018-06-18T02:52:31.932Z,28.40
2018-06-18T02:55:01.101Z,28.40
2018-06-18T02:57:30.759Z,28.10
2018-06-18T02:59:59.916Z,28.10
2018-06-18T03:02:29.058Z,28.00
2018-06-18T03:04:58.226Z,28.40
2018-06-18T03:07:27.369Z,28.50
2018-06-18T03:09:56.582Z,28.50
2018-06-18T03:12:25.768Z,28.40
2018-06-18T03:14:54.893Z,28.30
2018-06-18T03:17:24.046Z,28.30
2018-06-18T03:19:58.355Z,28.30
2018-06-18T03:22:34.090Z,28.20
2018-06-18T03:25:08.440Z,28.10
2018-06-18T03:27:42.978Z,27.80
2018-06-18T03:30:12.614Z,27.60
2018-06-18T03:32:47.668Z,27.70
2018-06-18T03:35:16.749Z,27.60
2018-06-18T03:37:46.013Z,27.40
2018-06-18T03:40:16.117Z,27.40
2018-06-18T03:42:48.602Z,27.10
2018-06-18T03:45:28.050Z,26.90
2018-06-18T03:48:02.702Z,26.80
2018-06-18T03:50:31.779Z,26.30
2018-06-18T03:53:01.022Z,26.30
2018-06-18T03:55:55.610Z,26.20
2018-06-18T03:58:30.685Z,26.00
2018-06-18T04:02:19.330Z,25.80
2018-06-18T04:05:01.651Z,25.80
2018-06-18T04:07:39.380Z,25.60
2018-06-18T04:10:13.872Z,25.50
2018-06-18T04:12:44.620Z,25.30
2018-06-18T04:15:15.524Z,25.40
2018-06-18T04:17:44.588Z,25.00
2018-06-18T04:20:14.121Z,25.00
2018-06-18T04:22:46.156Z,24.70
2018-06-18T04:25:15.839Z,24.00
2018-06-18T04:27:47.034Z,23.90
2018-06-18T04:30:17.033Z,24.10
2018-06-18T04:32:47.498Z,24.10
2018-06-18T04:35:17.258Z,23.40
2018-06-18T04:37:46.904Z,22.70
2018-06-18T04:40:16.785Z,22.80
2018-06-18T04:42:51.258Z,23.00
2018-06-18T04:45:25.705Z,22.50
2018-06-18T04:48:02.491Z,21.90
2018-06-18T04:50:37.503Z,21.60
2018-06-18T04:53:07.745Z,20.70
2018-06-18T04:55:37.656Z,20.00
2018-06-18T05:01:19.372Z,19.20
2018-06-18T05:03:54.212Z,18.40
2018-06-18T05:06:25.644Z,18.20
2018-06-18T05:09:39.768Z,17.70
2018-06-18T05:12:11.590Z,17.60
2018-06-18T05:14:42.710Z,17.10
2018-06-18T05:17:18.061Z,16.60
2018-06-18T05:19:48.444Z,16.20
2018-06-18T05:22:19.705Z,16.30
2018-06-18T05:24:51.471Z,16.40
2018-06-18T05:27:24.964Z,16.20
2018-06-18T05:29:58.368Z,15.50
2018-06-18T05:32:31.145Z,16.00
2018-06-18T05:35:01.887Z,15.80
2018-06-18T05:37:48.637Z,15.80
2018-06-18T05:40:18.833Z,15.70
2018-06-18T05:42:50.330Z,16.00
2018-06-18T05:45:20.753Z,16.00
2018-06-18T05:47:50.352Z,16.40
2018-06-18T05:50:19.899Z,16.20
2018-06-18T05:52:49.039Z,15.90
2018-06-18T05:55:20.213Z,16.70
2018-06-18T05:57:49.857Z,16.00
2018-06-18T06:03:02.396Z,16.30
2018-06-18T06:05:32.034Z,16.30
2018-06-18T06:08:01.257Z,16.60
2018-06-18T06:10:30.712Z,15.90
2018-06-18T06:13:00.428Z,15.90
2018-06-18T06:15:30.777Z,16.20
2018-06-18T06:18:01.835Z,15.80
2018-06-18T06:20:31.426Z,15.90
2018-06-18T06:23:00.869Z,16.00
2018-06-18T06:25:31.956Z,16.70
2018-06-18T06:28:01.668Z,15.70
2018-06-18T06:30:33.855Z,16.30
2018-06-18T06:33:05.099Z,15.80
2018-06-18T06:35:40.802Z,16.20
2018-06-18T06:38:10.865Z,15.40
2018-06-18T06:40:41.943Z,15.50
2018-06-18T06:43:14.554Z,16.40
2018-06-18T06:45:49.109Z,15.70
2018-06-18T06:48:19.941Z,15.70
2018-06-18T06:50:49.482Z,15.00
2018-06-18T06:53:20.113Z,15.40
2018-06-18T06:55:50.614Z,14.80
2018-06-18T06:58:21.739Z,14.80
2018-06-18T07:00:54.334Z,14.70
2018-06-18T07:03:28.068Z,14.40
2018-06-18T07:05:58.825Z,15.10
2018-06-18T07:08:29.589Z,14.20
2018-06-18T07:11:03.187Z,14.30
2018-06-18T07:13:32.863Z,14.30
2018-06-18T07:16:02.914Z,14.90
2018-06-18T07:18:33.973Z,15.00
2018-06-18T07:21:04.969Z,14.40
2018-06-18T07:23:35.154Z,14.40
2018-06-18T07:26:06.007Z,13.90
2018-06-18T07:28:35.106Z,13.60
2018-06-18T07:31:05.423Z,13.30
2018-06-18T07:33:34.931Z,13.70
2018-06-18T07:36:04.976Z,14.10
2018-06-18T07:38:34.739Z,13.90
2018-06-18T07:41:04.623Z,14.20
2018-06-18T07:43:34.770Z,14.60
2018-06-18T07:46:07.427Z,13.80
2018-06-18T07:48:38.757Z,14.00
2018-06-18T07:51:10.143Z,14.20
2018-06-18T07:56:14.488Z,12.90
2018-06-18T07:58:44.034Z,13.90
2018-06-18T08:01:15.021Z,14.20
2018-06-18T08:03:45.655Z,13.60
2018-06-18T08:06:17.776Z,13.00
2018-06-18T08:08:50.699Z,12.70
2018-06-18T08:11:20.477Z,13.40
2018-06-18T08:13:50.294Z,13.00
2018-06-18T08:16:25.577Z,13.00
2018-06-18T08:18:57.336Z,12.70
2018-06-18T08:21:29.453Z,12.40
2018-06-18T08:23:58.928Z,12.80
2018-06-18T08:26:28.103Z,11.90
2018-06-18T08:28:59.414Z,10.50
2018-06-18T08:31:29.905Z,10.50
2018-06-18T08:34:00.541Z,10.50
2018-06-18T08:36:32.238Z,10.50
2018-06-18T08:39:06.271Z,11.20
2018-06-18T08:41:35.375Z,9.50
2018-06-18T08:44:05.500Z,9.90
2018-06-18T08:46:35.381Z,9.80
2018-06-18T08:49:06.365Z,10.00
2018-06-18T08:51:42.903Z,9.70
2018-06-18T08:54:18.877Z,9.00
2018-06-18T08:56:54.369Z,8.50
2018-06-18T08:59:30.857Z,8.50
2018-06-18T09:02:02.048Z,8.40
2018-06-18T09:04:36.608Z,9.50
2018-06-18T09:07:15.873Z,9.30
2018-06-18T09:09:45.841Z,9.00
2018-06-18T09:12:15.784Z,10.40
2018-06-18T09:14:46.296Z,10.10
2018-06-18T09:17:16.235Z,10.40
2018-06-18T09:19:47.841Z,10.60
2018-06-18T09:22:17.933Z,11.10
2018-06-18T09:24:47.070Z,10.90
2018-06-18T09:27:16.243Z,11.60
2018-06-18T09:29:50.888Z,11.80
2018-06-18T09:32:21.161Z,11.20
2018-06-18T09:34:52.049Z,11.40
2018-06-18T09:37:23.148Z,11.40
2018-06-18T09:39:53.700Z,11.30
2018-06-18T09:42:25.058Z,10.70
2018-06-18T09:44:55.148Z,10.50
2018-06-18T09:47:26.015Z,10.20
2018-06-18T09:50:00.469Z,10.30
2018-06-18T09:52:35.944Z,11.10
2018-06-18T09:55:10.981Z,9.60
2018-06-18T09:57:45.803Z,9.20
2018-06-18T10:00:37.661Z,9.30
2018-06-18T10:03:07.073Z,8.40
2018-06-18T10:05:37.900Z,9.20
2018-06-18T10:08:07.213Z,8.10
2018-06-18T10:10:37.139Z,9.10
2018-06-18T10:15:42.314Z,9.60
2018-06-18T10:18:12.195Z,8.70
2018-06-18T10:20:42.771Z,9.80
2018-06-18T10:23:12.840Z,8.90
2018-06-18T10:25:46.570Z,8.30
2018-06-18T10:28:16.926Z,8.60
2018-06-18T10:30:46.053Z,9.30
2018-06-18T10:33:22.266Z,9.00
2018-06-18T10:35:58.406Z,9.30
2018-06-18T10:38:32.878Z,8.40
2018-06-18T10:41:09.090Z,8.60
2018-06-18T10:43:43.285Z,7.40
2018-06-18T10:46:14.026Z,8.10
2018-06-18T10:48:43.981Z,7.40
2018-06-18T10:51:13.918Z,7.30
2018-06-18T10:53:43.833Z,6.60
2018-06-18T10:56:14.507Z,6.60
2018-06-18T10:58:43.951Z,6.40
2018-06-18T11:01:24.574Z,7.40
2018-06-18T11:03:55.626Z,6.20
2018-06-18T11:06:30.376Z,5.20
2018-06-18T11:09:00.333Z,4.30
2018-06-18T11:11:30.638Z,3.20
2018-06-18T11:14:01.873Z,3.70
2018-06-18T11:16:31.316Z,3.10
2018-06-18T11:19:05.504Z,2.40
2018-06-18T11:21:41.901Z,1.20
2018-06-18T11:24:17.591Z,1.00
2018-06-18T11:26:52.835Z,1.00
2018-06-18T11:29:21.958Z,1.00
2018-06-18T11:31:53.367Z,1.00
2018-06-18T11:34:23.609Z,1.80
2018-06-18T11:36:55.184Z,2.90
2018-06-18T11:39:24.661Z,4.30
2018-06-18T11:41:56.779Z,5.30
2018-06-18T11:44:25.933Z,6.10
2018-06-18T11:46:55.014Z,6.60
2018-06-18T11:49:24.854Z,6.40
2018-06-18T11:51:54.561Z,5.60
2018-06-18T11:54:24.048Z,5.30
2018-06-18T11:56:56.086Z,5.40
2018-06-18T11:59:31.266Z,5.70
2018-06-18T12:02:08.379Z,6.00
2018-06-18T12:04:44.317Z,5.50
2018-06-18T12:07:18.682Z,6.80
2018-06-18T12:09:51.049Z,6.60
2018-06-18T12:12:21.194Z,6.80
2018-06-18T12:14:58.266Z,7.30
2018-06-18T12:17:32.630Z,7.50
2018-06-18T12:20:07.638Z,7.80
2018-06-18T12:22:38.195Z,7.90
2018-06-18T12:25:09.316Z,7.90
2018-06-18T12:27:38.981Z,7.90
2018-06-18T12:30:08.320Z,7.80
2018-06-18T12:32:41.393Z,7.30
2018-06-18T12:35:11.886Z,6.80
2018-06-18T12:37:42.042Z,5.70
2018-06-18T12:40:13.454Z,2.20
2018-06-18T12:42:43.699Z,1.00
2018-06-18T12:45:21.665Z,1.00
2018-06-18T12:47:56.996Z,1.00
2018-06-18T12:50:39.353Z,1.00
2018-06-18T12:53:15.430Z,1.00
2018-06-18T12:55:50.205Z,1.00
2018-06-18T12:58:20.734Z,1.00
2018-06-18T13:00:55.805Z,1.00
2018-06-18T13:03:26.210Z,1.00
2018-06-18T13:05:55.838Z,1.00
2018-06-18T13:08:27.191Z,1.00
2018-06-18T13:10:59.277Z,1.00
2018-06-18T13:13:30.139Z,1.00
2018-06-18T13:16:01.216Z,1.00
2018-06-18T13:18:30.933Z,1.00
2018-06-18T13:21:00.529Z,1.00
2018-06-18T13:26:04.381Z,1.00
2018-06-18T13:28:37.811Z,1.00
2018-06-18T13:31:07.684Z,1.00
2018-06-18T13:33:38.273Z,1.00
2018-06-18T13:36:10.523Z,1.00
2018-06-18T13:38:45.510Z,1.00
2018-06-18T13:41:20.002Z,1.00
2018-06-18T13:43:54.953Z,1.00
2018-06-18T13:46:29.309Z,1.00
2018-06-18T13:49:01.481Z,1.00
2018-06-18T13:51:32.369Z,1.00
2018-06-18T13:54:01.871Z,1.00
2018-06-18T13:56:34.012Z,1.00
2018-06-18T13:59:04.725Z,1.00
2018-06-18T14:01:33.895Z,1.00
2018-06-18T14:04:03.332Z,1.00
2018-06-18T14:06:34.201Z,1.00
2018-06-18T14:09:03.951Z,1.00
2018-06-18T14:11:36.463Z,1.00
2018-06-18T14:14:06.088Z,1.00
2018-06-18T14:16:35.550Z,1.00
2018-06-18T14:19:20.933Z,1.00
2018-06-18T14:21:51.431Z,1.00
2018-06-18T14:24:21.784Z,1.00
2018-06-18T14:26:52.880Z,1.00
2018-06-18T14:29:27.883Z,1.00
2018-06-18T14:32:00.743Z,1.00
2018-06-18T14:34:35.515Z,1.00
2018-06-18T14:37:10.790Z,1.00
2018-06-18T14:39:45.898Z,1.00
2018-06-18T14:42:15.607Z,1.00
2018-06-18T14:44:44.955Z,1.00
2018-06-18T14:47:16.034Z,1.00
2018-06-18T14:49:45.202Z,1.00
2018-06-18T14:52:15.480Z,1.00
2018-06-18T14:54:44.576Z,1.00
2018-06-18T14:57:14.316Z,1.00
2018-06-18T15:00:00.088Z,1.00
2018-06-18T15:02:31.511Z,1.00
2018-06-18T15:05:01.046Z,1.00
2018-06-18T15:07:30.606Z,1.00
2018-06-18T15:09:59.684Z,1.00
2018-06-18T15:12:34.861Z,1.00
2018-06-18T15:15:11.461Z,1.00
2018-06-18T15:17:41.825Z,1.00
2018-06-18T15:20:11.346Z,1.00
2018-06-18T15:22:43.517Z,1.00
2018-06-18T15:25:19.058Z,1.00
2018-06-18T15:27:48.419Z,1.00
2018-06-18T15:30:17.821Z,1.00
2018-06-18T15:32:47.586Z,1.00
2018-06-18T15:35:18.409Z,1.20
2018-06-18T15:37:47.825Z,2.10
2018-06-18T15:40:21.709Z,2.40
2018-06-18T15:42:53.001Z,3.10
2018-06-18T15:45:27.589Z,3.70
2018-06-18T15:47:58.889Z,4.00
2018-06-18T15:50:28.022Z,4.20
2018-06-18T15:55:27.543Z,5.30
2018-06-18T15:57:56.784Z,5.00
2018-06-18T16:00:26.362Z,5.00
2018-06-18T16:02:57.094Z,5.20
2018-06-18T16:05:27.260Z,4.90
2018-06-18T16:07:57.722Z,5.30
2018-06-18T16:10:26.941Z,5.40
2018-06-18T16:12:58.599Z,4.90
2018-06-18T16:15:28.352Z,4.60
2018-06-18T16:17:58.315Z,4.90
2018-06-18T16:20:27.682Z,5.10
2018-06-18T16:22:57.106Z,4.90
2018-06-18T16:25:27.149Z,4.90
2018-06-18T16:27:56.370Z,5.30
2018-06-18T16:30:26.810Z,4.80
2018-06-18T16:33:00.514Z,4.90
2018-06-18T16:35:30.198Z,4.50
2018-06-18T16:38:00.209Z,4.50
2018-06-18T16:40:37.291Z,4.30
2018-06-18T16:43:07.369Z,4.30
2018-06-18T16:45:36.765Z,4.10
2018-06-18T16:48:06.046Z,4.20
2018-06-18T16:50:35.300Z,4.50
2018-06-18T16:53:04.743Z,4.60
2018-06-18T16:55:35.209Z,5.00
2018-06-18T16:58:05.113Z,5.40
2018-06-18T17:00:34.528Z,5.70
2018-06-18T17:03:05.062Z,5.80
2018-06-18T17:05:35.269Z,6.20
2018-06-18T17:08:04.881Z,6.60
2018-06-18T17:10:35.597Z,6.80
2018-06-18T17:13:04.725Z,7.10
2018-06-18T17:15:36.306Z,7.30
2018-06-18T17:18:05.746Z,7.50
2018-06-18T17:20:34.953Z,7.60
2018-06-18T17:23:09.007Z,7.60
2018-06-18T17:25:39.726Z,7.50
2018-06-18T17:28:09.939Z,7.90
2018-06-18T17:30:40.684Z,7.70
2018-06-18T17:33:09.870Z,8.00
2018-06-18T17:35:41.066Z,7.90
2018-06-18T17:38:10.920Z,7.90
2018-06-18T17:40:44.303Z,7.90
2018-06-18T17:43:14.110Z,7.90
2018-06-18T17:45:44.487Z,7.90
2018-06-18T17:48:14.965Z,8.00
2018-06-18T17:50:45.752Z,8.70
2018-06-18T17:53:14.843Z,9.00
2018-06-18T17:55:43.989Z,9.10
2018-06-18T17:58:14.265Z,9.30
2018-06-18T18:00:45.683Z,9.50
2018-06-18T18:03:15.303Z,9.60
2018-06-18T18:05:45.450Z,9.40
2018-06-18T18:08:18.994Z,9.30
2018-06-18T18:10:48.237Z,9.50
2018-06-18T18:13:20.300Z,9.60
2018-06-18T18:15:53.842Z,10.00
2018-06-18T18:18:25.198Z,10.50
2018-06-18T18:23:23.748Z,11.00
2018-06-18T18:25:55.601Z,11.10
2018-06-18T18:28:25.453Z,11.20
2018-06-18T18:30:55.423Z,11.50
2018-06-18T18:33:25.866Z,11.70
2018-06-18T18:36:01.079Z,11.90
2018-06-18T18:38:30.956Z,12.10
2018-06-18T18:41:01.606Z,12.10
2018-06-18T18:43:31.481Z,12.50
2018-06-18T18:46:01.363Z,12.50
2018-06-18T18:48:38.626Z,12.70
2018-06-18T18:51:09.734Z,13.10
2018-06-18T18:53:39.854Z,13.20
2018-06-18T18:59:22.627Z,13.30
2018-06-18T19:01:53.655Z,13.60
2018-06-18T19:05:07.447Z,13.90
2018-06-18T19:07:42.380Z,14.00
2018-06-18T19:10:28.232Z,14.00
2018-06-18T19:13:00.118Z,14.20
2018-06-18T19:15:30.289Z,14.20
2018-06-18T19:18:03.042Z,14.30
2018-06-18T19:20:38.652Z,14.30
2018-06-18T19:23:13.857Z,14.40
2018-06-18T19:25:47.545Z,14.70
2018-06-18T19:28:17.578Z,15.10
2018-06-18T19:30:54.305Z,16.00
2018-06-18T19:33:40.142Z,16.00
2018-06-18T19:36:09.655Z,16.00
2018-06-18T19:38:41.436Z,15.80
2018-06-18T19:41:14.453Z,15.80
2018-06-18T19:43:49.198Z,16.20
2018-06-18T19:46:23.606Z,16.30
2018-06-18T19:48:58.297Z,16.80
2018-06-18T19:51:30.936Z,17.00
2018-06-18T19:54:05.950Z,17.10
2018-06-18T19:56:35.324Z,17.20
2018-06-18T19:59:04.448Z,17.50
2018-06-18T20:01:34.329Z,17.70
2018-06-18T20:04:04.495Z,18.20
2018-06-18T20:06:34.869Z,18.30
2018-06-18T20:09:11.065Z,18.60
2018-06-18T20:11:43.609Z,18.50
2018-06-18T20:14:13.079Z,18.70
2018-06-18T20:16:43.160Z,18.80
2018-06-18T20:19:13.541Z,18.80
2018-06-18T20:21:42.634Z,18.80
2018-06-18T20:24:12.662Z,19.00
2018-06-18T20:26:46.244Z,19.10
2018-06-18T20:29:15.518Z,19.10
2018-06-18T20:31:45.448Z,19.20
2018-06-18T20:34:17.259Z,19.20
2018-06-18T20:36:49.961Z,19.30
2018-06-18T20:39:19.679Z,19.20
2018-06-18T20:44:26.188Z,19.20
2018-06-18T20:46:55.614Z,19.10
2018-06-18T20:49:24.741Z,18.90
2018-06-18T20:51:53.894Z,19.00
2018-06-18T20:54:22.977Z,19.20
2018-06-18T20:56:52.818Z,19.20
2018-06-18T20:59:22.101Z,19.30
2018-06-18T21:01:51.189Z,19.60
2018-06-18T21:04:20.493Z,19.60
2018-06-18T21:06:49.573Z,19.90
2018-06-18T21:09:18.646Z,20.00
2018-06-18T21:11:47.746Z,20.20
2018-06-18T21:14:17.089Z,20.30
2018-06-18T21:16:48.625Z,20.50
2018-06-18T21:19:17.949Z,20.40
2018-06-18T21:21:47.022Z,20.60
2018-06-18T21:24:16.089Z,21.00
2018-06-18T21:26:45.179Z,20.90
2018-06-18T21:29:14.281Z,20.90
2018-06-18T21:31:43.354Z,21.10
2018-06-18T21:34:12.455Z,21.40
2018-06-18T21:36:41.574Z,21.30
2018-06-18T21:39:11.530Z,21.70
2018-06-18T21:41:40.638Z,22.00
2018-06-18T21:44:15.793Z,23.30
2018-06-18T21:46:45.106Z,22.20
2018-06-18T21:49:14.200Z,22.50
2018-06-18T21:51:43.377Z,22.50
2018-06-18T21:54:12.458Z,23.00
2018-06-18T21:56:41.526Z,23.10
2018-06-18T21:59:10.837Z,23.20
2018-06-18T22:01:44.817Z,23.20
2018-06-18T22:04:15.157Z,22.50
2018-06-18T22:06:44.638Z,23.20
2018-06-18T22:09:22.729Z,23.30
2018-06-18T22:11:54.637Z,23.20
2018-06-18T22:14:24.669Z,23.20
2018-06-18T22:16:53.743Z,23.50
2018-06-18T22:19:22.814Z,23.80
2018-06-18T22:21:51.909Z,24.00
2018-06-18T22:24:20.975Z,24.20
2018-06-18T22:26:50.103Z,24.40
2018-06-18T22:29:19.218Z,24.70
2018-06-18T22:31:48.362Z,24.60
2018-06-18T22:34:17.518Z,24.60
2018-06-18T22:36:46.567Z,24.50
2018-06-18T22:39:15.655Z,24.40
2018-06-18T22:41:44.801Z,24.80
2018-06-18T22:44:13.885Z,25.20
2018-06-18T22:46:42.986Z,26.00
2018-06-18T22:49:12.067Z,24.60
2018-06-18T22:51:41.192Z,25.00
2018-06-18T22:54:10.261Z,25.10
2018-06-18T22:56:39.354Z,25.40
2018-06-18T22:59:08.485Z,25.70
2018-06-18T23:01:37.622Z,25.70
2018-06-18T23:04:06.728Z,25.80
2018-06-18T23:06:35.801Z,26.10
2018-06-18T23:09:09.757Z,26.50
2018-06-18T23:11:39.120Z,26.50
2018-06-18T23:14:14.653Z,26.20
2018-06-18T23:16:43.942Z,26.00
2018-06-18T23:19:13.043Z,26.40
2018-06-18T23:21:42.119Z,25.90
2018-06-18T23:24:11.226Z,25.90
2018-06-18T23:26:40.501Z,25.80
2018-06-18T23:29:12.813Z,25.80
2018-06-18T23:31:42.022Z,25.30
2018-06-18T23:34:11.103Z,25.50
2018-06-18T23:36:40.545Z,25.90
2018-06-18T23:39:11.151Z,25.50
2018-06-18T23:41:47.916Z,25.50
2018-06-18T23:44:16.993Z,25.50
2018-06-18T23:46:46.062Z,25.50
2018-06-18T23:51:44.066Z,25.40
2018-06-18T23:54:13.164Z,25.30
2018-06-18T23:56:42.262Z,25.00
2018-06-18T23:59:11.344Z,25.20
